Saint Andrews, South Carolina
Current Conditions -  °F | °C
As of 11:55 AM on Wednesday 22 Oct 2014 (Local Time) from KJZI Reporting Station
Clear Clear  
Wind Chill: 64°   Ceiling: Unl
Heat Index: 64°   Visibility: 10mi
Dew Point: 45°   Wind: 10mph
Humidity: 49%   Direction: 10°N
Pressure: 30.04"   Gusts: NA
Location:  32.7979°N, 80.0031°W
Report Text: KJZI 221555Z AUTO 01009KT 10SM CLR 18/07 A3004 RMK A02 P000
Loading
Personal Weather Stations






























Interactive Weather Map
Tropical Storm Tracking
New forecast layout! Learn more

10-Day Weather Forecast

Advertisements
Track Severe Weather on mobile